Time;durP1;ratioP1;P1;durP2;ratioP2;P2;SDS_P1;SDS_P2;PMS_P1;PMS_P2;Temp;Humidity;BMP_temperature;BMP_pressure;BME280_temperature;BME280_humidity;BME280_pressure;Samples;Min_cycle;Max_cycle;Signal;HPM_P1;HPM_P2
2023/10/22 00:00:35;;;;;;;1.00;0.47;;;;;;;14.35;40.55;99581.94;5008976;28;20345;-75
2023/10/22 00:03:03;;;;;;;1.90;0.65;;;;;;;14.36;40.40;99567.09;5026398;28;20199;-75
2023/10/22 00:05:31;;;;;;;2.28;0.70;;;;;;;14.34;40.62;99583.84;5008982;28;20098;-75
2023/10/22 00:07:59;;;;;;;1.20;0.80;;;;;;;14.33;40.60;99579.38;5025322;28;20056;-76
2023/10/22 00:10:27;;;;;;;2.47;0.70;;;;;;;14.31;40.84;99586.97;5040934;28;20458;-74
2023/10/22 00:12:55;;;;;;;1.30;0.63;;;;;;;14.32;40.94;99577.66;5026214;28;20130;-74
2023/10/22 00:15:25;;;;;;;1.70;0.70;;;;;;;14.31;40.51;99581.44;5008547;28;20044;-75
2023/10/22 00:17:53;;;;;;;1.23;0.60;;;;;;;14.29;40.90;99580.78;5020567;28;20134;-74
2023/10/22 00:20:21;;;;;;;2.17;0.70;;;;;;;14.29;40.52;99583.53;5022414;28;20080;-75
2023/10/22 00:22:49;;;;;;;1.33;0.50;;;;;;;14.29;41.24;99588.19;5037557;28;20053;-76
2023/10/22 00:25:18;;;;;;;2.00;0.60;;;;;;;14.27;40.95;99585.63;5022362;28;20138;-76
2023/10/22 00:27:46;;;;;;;2.92;0.70;;;;;;;14.26;40.77;99602.34;5006008;28;20049;-75
2023/10/22 00:30:14;;;;;;;2.35;0.65;;;;;;;14.25;40.59;99589.63;5025917;28;20072;-74
2023/10/22 00:32:45;;;;;;;2.97;0.70;;;;;;;14.25;41.06;99584.97;5026564;28;20053;-74
2023/10/22 00:35:13;;;;;;;3.05;0.80;;;;;;;14.22;41.33;99595.50;5007060;28;20064;-76
2023/10/22 00:37:41;;;;;;;1.90;0.68;;;;;;;14.21;40.92;99599.28;5037495;28;20132;-75
2023/10/22 00:40:10;;;;;;;1.20;0.43;;;;;;;14.21;41.31;99604.78;5024769;28;20526;-74
2023/10/22 00:42:38;;;;;;;1.88;0.95;;;;;;;14.19;40.83;99595.88;5007892;28;20061;-73
2023/10/22 00:45:07;;;;;;;1.95;0.52;;;;;;;14.19;41.04;99599.47;5023977;28;20049;-74
2023/10/22 00:47:36;;;;;;;2.78;0.70;;;;;;;14.17;41.36;99603.47;5006557;28;20496;-75
2023/10/22 00:50:07;;;;;;;2.20;0.70;;;;;;;14.17;41.35;99596.06;5025998;28;20048;-74
2023/10/22 00:52:35;;;;;;;2.50;0.80;;;;;;;14.16;40.89;99610.00;5025001;28;20683;-74
2023/10/22 00:55:04;;;;;;;1.65;0.55;;;;;;;14.15;41.10;99608.28;5005324;28;20064;-74
2023/10/22 00:57:32;;;;;;;1.73;0.65;;;;;;;14.13;41.46;99604.88;5025798;28;20045;-73
2023/10/22 01:00:00;;;;;;;2.17;0.70;;;;;;;14.12;41.11;99604.00;5004829;28;20983;-74
2023/10/22 01:02:28;;;;;;;2.10;0.63;;;;;;;14.12;41.37;99614.16;5023393;28;20625;-74
2023/10/22 01:04:56;;;;;;;2.10;1.00;;;;;;;14.11;41.29;99612.44;5024201;28;20045;-74
2023/10/22 01:07:26;;;;;;;2.17;0.57;;;;;;;14.12;41.33;99619.66;5024501;28;20068;-75
2023/10/22 01:09:54;;;;;;;0.98;0.50;;;;;;;14.10;41.14;99608.88;5022069;28;20100;-74
2023/10/22 01:12:22;;;;;;;2.40;0.60;;;;;;;14.10;41.71;99610.78;5025794;28;20069;-74
2023/10/22 01:14:49;;;;;;;1.60;0.50;;;;;;;14.10;41.67;99616.28;5024020;28;20049;-75
2023/10/22 01:17:18;;;;;;;1.08;0.50;;;;;;;14.09;41.83;99623.66;5024745;28;20119;-73
2023/10/22 01:19:45;;;;;;;1.13;0.60;;;;;;;14.08;41.41;99630.19;5021813;28;20179;-74
2023/10/22 01:22:13;;;;;;;1.65;0.38;;;;;;;14.08;41.48;99638.47;5021954;28;20743;-74
2023/10/22 01:24:43;;;;;;;1.83;0.60;;;;;;;14.09;41.71;99637.41;5022578;28;20176;-74
2023/10/22 01:27:11;;;;;;;2.03;0.60;;;;;;;14.06;41.75;99635.03;5021750;28;20052;-75
2023/10/22 01:29:39;;;;;;;1.65;0.60;;;;;;;14.07;41.75;99641.38;5004838;28;20194;-75
2023/10/22 01:32:07;;;;;;;1.58;0.65;;;;;;;14.05;41.40;99638.81;5004730;28;20241;-73
2023/10/22 01:34:35;;;;;;;2.15;0.73;;;;;;;14.04;41.50;99641.75;5036876;28;20057;-74
2023/10/22 01:37:04;;;;;;;1.60;0.55;;;;;;;14.03;41.51;99638.16;5006372;28;20057;-74
2023/10/22 01:39:32;;;;;;;1.95;0.60;;;;;;;14.02;41.54;99638.34;5021476;28;20608;-74
2023/10/22 01:42:01;;;;;;;0.95;0.60;;;;;;;14.02;41.96;99647.47;5004972;28;20045;-75
2023/10/22 01:44:29;;;;;;;1.27;0.50;;;;;;;14.01;41.76;99651.25;5024720;28;20905;-74
2023/10/22 01:46:57;;;;;;;1.48;0.40;;;;;;;13.99;41.86;99648.69;5023265;28;20555;-75
2023/10/22 01:49:25;;;;;;;2.05;0.60;;;;;;;13.98;41.85;99644.22;5023573;28;20514;-75
2023/10/22 01:51:53;;;;;;;1.85;0.40;;;;;;;13.98;42.21;99655.22;5022670;28;20037;-74
2023/10/22 01:54:21;;;;;;;1.58;0.50;;;;;;;13.98;42.59;99655.22;5023705;28;20752;-74
2023/10/22 01:56:50;;;;;;;1.92;0.63;;;;;;;13.98;42.61;99652.47;5004497;28;20430;-76
2023/10/22 01:59:19;;;;;;;1.45;0.50;;;;;;;13.99;42.25;99653.31;4996584;28;20045;-75
2023/10/22 02:01:47;;;;;;;2.28;0.50;;;;;;;13.97;42.35;99653.50;4991833;28;20049;-75
2023/10/22 02:04:15;;;;;;;2.65;0.60;;;;;;;13.97;42.41;99660.91;4987884;28;20052;-74
2023/10/22 02:06:43;;;;;;;0.80;0.35;;;;;;;13.96;42.89;99670.19;5004281;28;20787;-74
2023/10/22 02:09:12;;;;;;;1.52;0.45;;;;;;;13.95;42.74;99661.09;4994541;28;20053;-74
2023/10/22 02:11:41;;;;;;;1.23;0.40;;;;;;;13.94;43.17;99673.13;5003986;28;20457;-73
2023/10/22 02:14:09;;;;;;;1.35;0.60;;;;;;;13.94;42.75;99669.53;4993423;28;20045;-74
2023/10/22 02:16:38;;;;;;;0.77;0.40;;;;;;;13.94;42.89;99661.28;5004266;28;20048;-74
2023/10/22 02:19:07;;;;;;;1.23;0.40;;;;;;;13.91;43.15;99662.50;5005327;28;20045;-73
2023/10/22 02:21:35;;;;;;;0.75;0.40;;;;;;;13.91;43.01;99679.00;5003681;28;20619;-75
2023/10/22 02:24:03;;;;;;;1.27;0.50;;;;;;;13.91;42.92;99670.75;5021902;28;20144;-75
2023/10/22 02:26:32;;;;;;;1.65;0.55;;;;;;;13.89;43.40;99678.34;5005382;28;20045;-74
2023/10/22 02:29:00;;;;;;;1.55;0.40;;;;;;;13.90;42.98;99681.94;5004420;28;20366;-75
2023/10/22 02:31:28;;;;;;;1.48;0.47;;;;;;;13.89;43.44;99689.34;5005189;28;20049;-75
2023/10/22 02:34:03;;;;;;;0.90;0.43;;;;;;;13.91;43.62;99692.75;5005285;28;20674;-74
2023/10/22 02:36:31;;;;;;;1.20;0.50;;;;;;;13.87;43.48;99690.56;5026387;28;20071;-73
2023/10/22 02:38:59;;;;;;;1.30;0.55;;;;;;;13.86;43.14;99700.69;5038250;28;20525;-74
2023/10/22 02:41:28;;;;;;;2.33;0.40;;;;;;;13.86;43.29;99702.63;5008886;28;20308;-75
2023/10/22 02:43:57;;;;;;;1.95;0.50;;;;;;;13.85;43.25;99706.41;5026923;28;20550;-74
2023/10/22 02:46:25;;;;;;;1.40;0.38;;;;;;;13.84;43.18;99705.53;5025759;28;20060;-74
2023/10/22 02:48:53;;;;;;;1.13;0.38;;;;;;;13.83;43.75;99714.84;5008182;28;20565;-74
2023/10/22 02:51:23;;;;;;;0.93;0.40;;;;;;;13.85;43.22;99717.41;5027701;28;20049;-74
2023/10/22 02:53:51;;;;;;;1.33;0.60;;;;;;;13.83;43.75;99717.59;5039405;28;20932;-75
2023/10/22 02:56:20;;;;;;;1.73;0.40;;;;;;;13.83;43.44;99719.47;5040975;28;20940;-73
2023/10/22 02:58:47;;;;;;;0.88;0.40;;;;;;;13.83;43.96;99724.97;5025193;28;20055;-74
2023/10/22 03:01:16;;;;;;;1.23;0.40;;;;;;;13.82;44.01;99713.13;5007686;28;20308;-74
2023/10/22 03:03:45;;;;;;;1.05;0.30;;;;;;;13.82;43.66;99724.13;5010599;28;20483;-75
2023/10/22 03:06:13;;;;;;;1.20;0.50;;;;;;;13.81;43.99;99725.16;5025060;28;20131;-74
2023/10/22 03:08:43;;;;;;;1.23;0.40;;;;;;;13.82;44.26;99750.75;5007738;28;20415;-73
2023/10/22 03:11:18;;;;;;;1.17;0.38;;;;;;;13.83;44.71;99756.09;5024974;28;20076;-74
2023/10/22 03:13:47;;;;;;;0.25;0.15;;;;;;;13.80;44.11;99739.06;5007725;28;20049;-73
2023/10/22 03:16:15;;;;;;;0.80;0.20;;;;;;;13.79;44.41;99737.38;5024325;28;20472;-75
2023/10/22 03:18:45;;;;;;;1.00;0.20;;;;;;;13.79;44.50;99749.22;5028248;28;20041;-74
2023/10/22 03:21:14;;;;;;;1.15;0.50;;;;;;;13.78;44.37;99764.00;5024754;28;20144;-76
2023/10/22 03:23:44;;;;;;;1.10;0.32;;;;;;;13.80;44.51;99758.31;5007122;28;20131;-74
2023/10/22 03:26:14;;;;;;;0.47;0.20;;;;;;;13.79;44.70;99759.38;5023628;28;20132;-74
2023/10/22 03:28:42;;;;;;;0.68;0.32;;;;;;;13.78;44.55;99765.91;5006185;28;20057;-74
2023/10/22 03:31:10;;;;;;;1.17;0.20;;;;;;;13.77;44.73;99758.72;5027274;28;20086;-75
2023/10/22 03:33:38;;;;;;;0.80;0.25;;;;;;;13.77;45.16;99769.72;5026320;28;20200;-75
2023/10/22 03:36:09;;;;;;;1.13;0.43;;;;;;;13.76;45.10;99765.25;5006904;28;20715;-75
2023/10/22 03:38:38;;;;;;;0.30;0.20;;;;;;;13.74;45.09;99768.16;5025342;28;20508;-74
2023/10/22 03:41:07;;;;;;;0.73;0.20;;;;;;;13.76;45.24;99776.25;5007923;28;20045;-74
2023/10/22 03:43:35;;;;;;;1.20;0.40;;;;;;;13.73;44.63;99766.47;5026830;28;20162;-75
2023/10/22 03:46:03;;;;;;;1.17;0.47;;;;;;;13.74;44.75;99770.06;5006462;28;20155;-73
2023/10/22 03:48:32;;;;;;;0.38;0.17;;;;;;;13.74;45.24;99775.56;5006278;28;20147;-74
2023/10/22 03:51:00;;;;;;;0.90;0.30;;;;;;;13.73;45.23;99776.59;5007479;28;20037;-74
2023/10/22 03:53:29;;;;;;;0.65;0.28;;;;;;;13.72;44.93;99773.00;5007299;28;20239;-75
2023/10/22 03:55:56;;;;;;;0.15;0.10;;;;;;;13.73;45.19;99787.59;5006229;28;20055;-76
2023/10/22 03:58:26;;;;;;;0.80;0.20;;;;;;;13.73;44.83;99782.94;5025964;28;20068;-75
2023/10/22 04:00:54;;;;;;;0.40;0.20;;;;;;;13.73;45.42;99798.59;5006691;28;20046;-75
2023/10/22 04:03:23;;;;;;;0.20;0.15;;;;;;;13.72;45.43;99794.13;5025866;28;20049;-76
2023/10/22 04:05:56;;;;;;;0.98;0.20;;;;;;;13.74;45.28;99797.56;5024266;28;20136;-76
2023/10/22 04:08:25;;;;;;;0.47;0.20;;;;;;;13.71;45.43;99795.16;5007898;28;20045;-74
2023/10/22 04:10:53;;;;;;;0.35;0.30;;;;;;;13.71;45.26;99803.41;5025914;28;20046;-76
2023/10/22 04:13:22;;;;;;;1.65;0.30;;;;;;;13.70;45.33;99808.06;5025197;28;20041;-74
2023/10/22 04:15:51;;;;;;;0.25;0.25;;;;;;;13.70;45.41;99816.28;5026250;28;20339;-75
2023/10/22 04:18:20;;;;;;;0.82;0.30;;;;;;;13.69;45.66;99817.38;5024538;28;20065;-75
2023/10/22 04:20:50;;;;;;;1.88;0.40;;;;;;;13.69;45.24;99824.75;5005666;28;20449;-75
2023/10/22 04:23:19;;;;;;;0.25;0.22;;;;;;;13.68;45.88;99832.16;5025384;28;20044;-76
2023/10/22 04:25:47;;;;;;;0.55;0.13;;;;;;;13.68;45.48;99836.78;5005143;28;20061;-75
2023/10/22 04:28:16;;;;;;;0.30;0.20;;;;;;;13.67;45.56;99835.94;5024036;28;20508;-75
2023/10/22 04:30:44;;;;;;;0.43;0.20;;;;;;;13.67;46.03;99843.31;5024264;28;20063;-75
2023/10/22 04:33:14;;;;;;;0.20;0.20;;;;;;;13.68;45.76;99843.16;5003718;28;20115;-74
2023/10/22 04:35:42;;;;;;;0.30;0.20;;;;;;;13.66;46.17;99858.94;5024879;28;20045;-74
2023/10/22 04:38:10;;;;;;;1.00;0.50;;;;;;;13.66;45.97;99856.19;5023944;28;20076;-74
2023/10/22 04:40:40;;;;;;;0.50;0.25;;;;;;;13.66;46.11;99858.94;5006537;28;20083;-75
2023/10/22 04:43:08;;;;;;;0.35;0.20;;;;;;;13.66;45.71;99861.69;5006121;28;20057;-75
2023/10/22 04:45:36;;;;;;;0.30;0.17;;;;;;;13.66;46.24;99864.44;5024064;28;20053;-75
2023/10/22 04:48:04;;;;;;;0.65;0.22;;;;;;;13.68;45.84;99872.53;5024234;28;20049;-75
2023/10/22 04:50:37;;;;;;;1.35;0.30;;;;;;;13.70;46.38;99881.44;5024442;28;20427;-76
2023/10/22 04:53:05;;;;;;;0.60;0.30;;;;;;;13.65;45.97;99890.22;5025837;28;20136;-75
2023/10/22 04:55:33;;;;;;;0.47;0.25;;;;;;;13.67;46.50;99885.41;5024775;28;20056;-74
2023/10/22 04:58:02;;;;;;;1.60;0.30;;;;;;;13.67;46.12;99893.66;5022598;28;20573;-75
2023/10/22 05:00:30;;;;;;;0.45;0.25;;;;;;;13.67;46.66;99893.66;5006118;28;20056;-75
2023/10/22 05:02:59;;;;;;;0.70;0.30;;;;;;;13.68;46.78;99905.53;5036656;28;20141;-75
2023/10/22 05:05:27;;;;;;;0.45;0.30;;;;;;;13.68;46.14;99922.03;5024601;28;20049;-74
2023/10/22 05:07:56;;;;;;;0.80;0.20;;;;;;;13.70;46.88;99936.44;5022784;28;20048;-75
2023/10/22 05:10:24;;;;;;;3.40;0.40;;;;;;;13.68;46.55;99936.63;5005535;28;20053;-74
2023/10/22 05:12:52;;;;;;;1.80;0.30;;;;;;;13.70;47.00;99945.53;5036991;28;20384;-75
2023/10/22 05:15:21;;;;;;;1.45;0.40;;;;;;;13.70;46.97;99944.69;5023589;28;20049;-75
2023/10/22 05:17:49;;;;;;;0.55;0.35;;;;;;;13.68;47.11;99925.63;5024153;28;20218;-74
2023/10/22 05:20:18;;;;;;;1.35;0.40;;;;;;;13.66;47.01;99918.59;5005597;28;20057;-75
2023/10/22 05:22:48;;;;;;;1.10;0.30;;;;;;;13.64;46.97;99940.75;5006048;28;20044;-75
2023/10/22 05:25:20;;;;;;;0.70;0.30;;;;;;;13.63;48.06;99941.78;5003391;28;20057;-74
2023/10/22 05:27:49;;;;;;;0.90;0.40;;;;;;;13.56;47.77;99941.63;5004496;28;20336;-75
2023/10/22 05:30:17;;;;;;;2.10;0.50;;;;;;;13.56;47.31;99951.75;5005553;28;20490;-75
2023/10/22 05:32:45;;;;;;;1.15;0.50;;;;;;;13.54;47.85;99948.31;5024154;28;20056;-74
2023/10/22 05:35:13;;;;;;;1.23;0.60;;;;;;;13.52;47.80;99948.50;5005217;28;20054;-75
2023/10/22 05:37:43;;;;;;;1.27;0.50;;;;;;;13.53;47.67;99960.34;5006162;28;20206;-75
2023/10/22 05:40:13;;;;;;;2.58;0.65;;;;;;;13.51;47.96;99966.03;5006679;28;20140;-76
2023/10/22 05:42:42;;;;;;;1.60;0.60;;;;;;;13.49;47.62;99961.72;5022937;28;20065;-75
2023/10/22 05:45:11;;;;;;;1.05;0.50;;;;;;;13.48;48.23;99968.25;5024819;28;20184;-75
2023/10/22 05:47:39;;;;;;;1.45;0.60;;;;;;;13.46;47.99;99973.91;5024247;28;20072;-76
2023/10/22 05:50:08;;;;;;;2.45;0.60;;;;;;;13.45;48.29;99976.84;5024924;28;20068;-75
2023/10/22 05:52:36;;;;;;;1.02;0.50;;;;;;;13.43;48.54;99981.66;5005237;28;20124;-75
2023/10/22 05:55:04;;;;;;;1.55;0.77;;;;;;;13.43;48.12;99984.41;5020664;28;20061;-76
2023/10/22 05:57:32;;;;;;;1.05;0.52;;;;;;;13.41;48.31;99990.09;5036198;28;20053;-74
2023/10/22 06:00:01;;;;;;;2.58;0.82;;;;;;;13.42;48.24;99997.31;5023442;28;20069;-76
2023/10/22 06:02:31;;;;;;;2.03;0.82;;;;;;;13.41;48.16;100003.81;5023812;28;20054;-75
2023/10/22 06:04:59;;;;;;;2.67;1.00;;;;;;;13.41;47.73;100002.97;5024148;28;20049;-75
2023/10/22 06:07:31;;;;;;;2.05;1.00;;;;;;;13.38;47.76;100008.81;5005285;28;20053;-75
2023/10/22 06:09:59;;;;;;;1.90;0.95;;;;;;;13.38;47.81;100001.41;5025890;28;20070;-76
2023/10/22 06:12:27;;;;;;;1.67;0.95;;;;;;;13.38;47.09;100017.91;5028227;28;20045;-76
2023/10/22 06:15:03;;;;;;;1.88;0.93;;;;;;;13.37;47.62;100016.19;5025918;28;20048;-76
2023/10/22 06:17:32;;;;;;;2.17;0.82;;;;;;;13.38;47.21;100012.41;5026945;28;20072;-77
2023/10/22 06:20:00;;;;;;;1.88;1.10;;;;;;;13.35;47.63;100012.78;5028593;28;20060;-74
2023/10/22 06:22:28;;;;;;;1.63;0.90;;;;;;;13.35;47.54;100011.91;5010549;28;20648;-75
2023/10/22 06:24:56;;;;;;;2.45;1.02;;;;;;;13.35;47.54;100028.41;5027872;28;20133;-74
2023/10/22 06:27:24;;;;;;;1.20;0.80;;;;;;;13.33;47.92;100025.81;5026678;28;20481;-74
2023/10/22 06:29:53;;;;;;;1.70;1.08;;;;;;;13.34;47.41;100032.19;5007400;28;20044;-75
2023/10/22 06:32:21;;;;;;;1.10;0.57;;;;;;;13.33;47.84;100047.81;5026630;28;20053;-75
2023/10/22 06:34:51;;;;;;;2.70;0.80;;;;;;;13.34;47.24;100051.41;5027970;28;20055;-74
2023/10/22 06:37:18;;;;;;;0.93;0.50;;;;;;;13.31;47.65;100051.75;5027210;28;20049;-76
2023/10/22 06:39:46;;;;;;;1.70;0.40;;;;;;;13.29;47.33;100051.91;5008815;28;20053;-75
2023/10/22 06:42:14;;;;;;;1.15;0.57;;;;;;;13.29;47.82;100054.66;5009590;28;20057;-74
2023/10/22 06:44:43;;;;;;;0.65;0.43;;;;;;;13.29;47.56;100062.03;5007477;28;20065;-75
2023/10/22 06:47:11;;;;;;;1.35;0.82;;;;;;;13.28;47.67;100054.84;5007531;28;20052;-74
2023/10/22 06:49:39;;;;;;;1.23;0.60;;;;;;;13.27;47.54;100059.50;5026617;28;20065;-74
2023/10/22 06:52:09;;;;;;;1.13;0.55;;;;;;;13.29;47.53;100062.03;5027352;28;20641;-75
2023/10/22 06:54:37;;;;;;;0.77;0.57;;;;;;;13.26;47.84;100068.75;5027433;28;20049;-77
2023/10/22 06:57:06;;;;;;;0.50;0.30;;;;;;;13.25;47.82;100072.53;5008286;28;20052;-75
2023/10/22 06:59:34;;;;;;;0.75;0.43;;;;;;;13.24;47.62;100074.44;5009050;28;20069;-76
2023/10/22 07:02:02;;;;;;;0.90;0.38;;;;;;;13.23;48.19;100074.59;5027598;28;20046;-74
2023/10/22 07:04:29;;;;;;;1.30;0.52;;;;;;;13.23;47.93;100082.84;5025423;28;20155;-74
2023/10/22 07:06:57;;;;;;;0.95;0.50;;;;;;;13.23;47.65;100088.31;5026369;28;21109;-77
2023/10/22 07:09:27;;;;;;;0.63;0.30;;;;;;;13.24;47.19;100090.91;5026657;28;21449;-79
2023/10/22 07:11:55;;;;;;;0.70;0.47;;;;;;;13.22;47.47;100097.59;5026999;28;20057;-75
2023/10/22 07:14:23;;;;;;;0.60;0.40;;;;;;;13.21;47.42;100094.00;5029142;28;20189;-74
2023/10/22 07:16:50;;;;;;;0.52;0.50;;;;;;;13.21;47.74;100093.13;5025843;28;21010;-75
2023/10/22 07:19:18;;;;;;;0.95;0.40;;;;;;;13.20;47.46;100103.25;5026452;28;20877;-74
2023/10/22 07:21:46;;;;;;;1.45;0.40;;;;;;;13.20;47.55;100105.19;5007519;28;20542;-76
2023/10/22 07:24:14;;;;;;;1.38;0.50;;;;;;;13.19;47.55;100106.19;5025892;28;21414;-74
2023/10/22 07:26:44;;;;;;;1.25;0.73;;;;;;;13.21;47.80;100115.09;5026521;28;20041;-74
2023/10/22 07:29:12;;;;;;;0.85;0.75;;;;;;;13.19;47.86;100111.69;5007641;28;20053;-77
2023/10/22 07:31:40;;;;;;;1.10;0.60;;;;;;;13.18;47.42;100113.59;5026017;28;20049;-77
2023/10/22 07:34:08;;;;;;;0.82;0.47;;;;;;;13.19;48.06;100117.19;5025954;28;20136;-77
2023/10/22 07:36:36;;;;;;;1.08;0.50;;;;;;;13.18;47.48;100127.31;5006253;28;20144;-75
2023/10/22 07:39:04;;;;;;;2.05;0.60;;;;;;;13.18;47.86;100130.06;5038787;28;20167;-75
2023/10/22 07:41:32;;;;;;;2.22;0.80;;;;;;;13.18;48.01;100135.56;5027392;28;20063;-75
2023/10/22 07:44:01;;;;;;;0.93;0.40;;;;;;;13.20;47.47;100141.72;5026003;28;20045;-74
2023/10/22 07:46:29;;;;;;;0.90;0.35;;;;;;;13.18;47.34;100141.06;5027692;28;20131;-74
2023/10/22 07:48:57;;;;;;;1.35;0.50;;;;;;;13.18;47.47;100149.31;5026360;28;20753;-75
2023/10/22 07:51:27;;;;;;;1.45;0.40;;;;;;;13.18;47.90;100151.19;5008754;28;20639;-74
2023/10/22 07:53:55;;;;;;;1.10;0.82;;;;;;;13.19;47.96;100150.16;5008269;28;20057;-74
2023/10/22 07:56:23;;;;;;;1.67;0.50;;;;;;;13.19;47.71;100153.78;5026169;28;20096;-76
2023/10/22 07:58:51;;;;;;;0.68;0.50;;;;;;;13.20;48.14;100155.47;5025128;28;20050;-75
2023/10/22 08:01:23;;;;;;;1.15;0.60;;;;;;;13.22;47.55;100155.31;5025702;28;20457;-75
2023/10/22 08:03:51;;;;;;;0.63;0.50;;;;;;;13.19;47.83;100151.03;5008158;28;20049;-76
2023/10/22 08:06:19;;;;;;;2.25;0.80;;;;;;;13.22;47.80;100155.31;5035546;23;20077;-75
2023/10/22 08:08:47;;;;;;;1.55;0.60;;;;;;;13.23;47.85;100168.00;5024516;28;20408;-75
2023/10/22 08:11:15;;;;;;;1.35;0.80;;;;;;;13.23;48.13;100177.13;5022786;28;20045;-74
2023/10/22 08:13:43;;;;;;;2.55;0.73;;;;;;;13.24;47.89;100176.09;5024382;28;20053;-74
2023/10/22 08:16:12;;;;;;;1.30;0.65;;;;;;;13.25;48.39;100185.19;5024530;28;20175;-74
2023/10/22 08:18:43;;;;;;;1.27;0.60;;;;;;;13.28;48.08;100190.38;5022524;28;20064;-77
2023/10/22 08:21:11;;;;;;;2.28;0.80;;;;;;;13.27;48.51;100191.41;5023774;28;20057;-77
2023/10/22 08:23:39;;;;;;;1.40;0.88;;;;;;;13.29;48.22;100189.31;5022683;28;20056;-74
2023/10/22 08:26:07;;;;;;;1.98;0.95;;;;;;;13.30;48.47;100188.28;5030303;28;20049;-74
2023/10/22 08:28:35;;;;;;;2.42;0.85;;;;;;;13.31;48.08;100181.78;5031277;28;20122;-76
2023/10/22 08:31:03;;;;;;;1.58;0.82;;;;;;;13.32;48.53;100191.75;5038462;28;20053;-74
2023/10/22 08:33:31;;;;;;;1.90;0.93;;;;;;;13.32;48.20;100196.38;5019799;28;20099;-76
2023/10/22 08:36:09;;;;;;;1.52;0.80;;;;;;;13.36;48.48;100200.53;5023303;28;20053;-75
2023/10/22 08:38:37;;;;;;;1.75;0.73;;;;;;;13.33;48.47;100203.59;5025923;28;20072;-77
2023/10/22 08:41:06;;;;;;;1.45;0.73;;;;;;;13.33;48.36;100209.09;5018943;28;20052;-76
2023/10/22 08:43:38;;;;;;;1.45;0.85;;;;;;;13.34;48.10;100214.44;5023713;28;20370;-75
2023/10/22 08:46:06;;;;;;;0.88;0.65;;;;;;;13.31;48.39;100223.00;5019305;28;20057;-75
2023/10/22 08:48:37;;;;;;;1.00;0.50;;;;;;;13.36;47.84;100222.50;5023936;28;20601;-76
2023/10/22 08:51:08;;;;;;;0.88;0.57;;;;;;;13.36;47.77;100219.75;5022396;28;20088;-77
2023/10/22 08:53:36;;;;;;;1.55;0.60;;;;;;;13.34;48.30;100225.41;5022521;28;20424;-75
2023/10/22 08:56:05;;;;;;;0.98;0.47;;;;;;;13.35;47.76;100227.16;5023240;28;20126;-74
2023/10/22 08:58:33;;;;;;;1.17;0.50;;;;;;;13.35;48.25;100235.38;5022815;28;20052;-75
2023/10/22 09:01:01;;;;;;;1.02;0.50;;;;;;;13.35;48.28;100238.13;5023159;28;20044;-76
2023/10/22 09:03:31;;;;;;;0.93;0.40;;;;;;;13.34;48.13;100235.56;5024154;28;20180;-74
2023/10/22 09:06:01;;;;;;;0.68;0.38;;;;;;;13.36;48.29;100247.25;5022425;28;20069;-75
2023/10/22 09:08:43;;;;;;;2.53;0.60;;;;;;;13.39;48.22;100249.63;5021417;28;20534;-76
2023/10/22 09:11:16;;;;;;;0.50;0.40;;;;;;;13.36;48.17;100250.00;5023239;28;20045;-76
2023/10/22 09:13:44;;;;;;;0.80;0.45;;;;;;;13.34;48.12;100247.41;5023777;28;20045;-77
2023/10/22 09:16:12;;;;;;;0.80;0.52;;;;;;;13.37;48.64;100252.53;5020724;28;20060;-74
2023/10/22 09:18:44;;;;;;;1.75;0.60;;;;;;;13.40;48.76;100243.13;5040443;28;20080;-74
2023/10/22 09:21:12;;;;;;;1.50;0.70;;;;;;;13.36;48.63;100250.00;5021542;28;20155;-74
2023/10/22 09:23:44;;;;;;;0.73;0.40;;;;;;;13.39;48.72;100257.88;5021604;28;20889;-75
2023/10/22 09:26:15;;;;;;;1.00;0.60;;;;;;;13.38;48.84;100261.66;5022102;28;20451;-75
2023/10/22 09:28:46;;;;;;;1.27;0.50;;;;;;;13.39;48.37;100268.88;5021501;28;20336;-75
2023/10/22 09:31:14;;;;;;;0.85;0.40;;;;;;;13.39;49.00;100266.13;5020935;28;20160;-74
2023/10/22 09:33:42;;;;;;;1.85;0.70;;;;;;;13.40;49.07;100270.59;5023456;28;20135;-75
2023/10/22 09:36:11;;;;;;;1.17;0.55;;;;;;;13.41;48.48;100270.44;5027854;28;20140;-76
2023/10/22 09:39:01;;;;;;;1.50;0.50;;;;;;;13.43;48.95;100273.88;5021432;28;20492;-77
2023/10/22 09:41:30;;;;;;;2.30;0.60;;;;;;;13.41;49.03;100272.31;5020699;28;20055;-74
2023/10/22 09:43:59;;;;;;;1.17;0.57;;;;;;;13.44;48.93;100274.75;5022760;28;20041;-75
2023/10/22 09:46:30;;;;;;;0.73;0.50;;;;;;;13.46;48.74;100279.03;5019342;28;20037;-74
2023/10/22 09:48:59;;;;;;;1.55;0.50;;;;;;;13.45;49.08;100285.56;5018097;28;20395;-74
2023/10/22 09:51:31;;;;;;;2.33;0.50;;;;;;;13.47;49.43;100291.75;5018823;28;20051;-73
2023/10/22 09:54:05;;;;;;;0.93;0.40;;;;;;;13.49;49.41;100297.09;5020790;28;20051;-75
2023/10/22 09:56:38;;;;;;;1.00;0.60;;;;;;;13.47;48.86;100301.88;5020233;28;20412;-74
2023/10/22 09:59:10;;;;;;;0.47;0.38;;;;;;;13.52;49.26;100310.50;5019207;28;20802;-73
2023/10/22 10:01:39;;;;;;;1.42;0.55;;;;;;;13.50;48.92;100310.69;5018495;28;20053;-74
2023/10/22 10:04:08;;;;;;;1.85;0.43;;;;;;;13.52;49.08;100310.50;5023860;28;20059;-73
2023/10/22 10:06:37;;;;;;;1.40;0.52;;;;;;;13.53;48.84;100309.50;5018625;28;20143;-74
2023/10/22 10:09:09;;;;;;;1.13;0.50;;;;;;;13.53;49.03;100310.31;5019823;28;20138;-74
2023/10/22 10:11:39;;;;;;;1.33;0.60;;;;;;;13.52;49.33;100310.50;5020933;28;20049;-74
2023/10/22 10:14:31;;;;;;;0.73;0.50;;;;;;;13.57;49.64;100324.66;5023197;28;20080;-74
2023/10/22 10:17:00;;;;;;;2.17;0.50;;;;;;;13.53;49.57;100329.56;5019825;28;20311;-74
2023/10/22 10:19:29;;;;;;;0.93;0.52;;;;;;;13.55;49.06;100332.16;5020416;28;20203;-73
2023/10/22 10:21:57;;;;;;;0.95;0.60;;;;;;;13.57;48.88;100338.38;5021027;28;20106;-74
2023/10/22 10:24:28;;;;;;;1.63;0.68;;;;;;;13.59;49.24;100339.97;5022766;28;20053;-74
2023/10/22 10:27:23;;;;;;;1.52;0.70;;;;;;;13.60;49.90;100333.44;5022045;28;20388;-74
2023/10/22 10:30:18;;;;;;;0.88;0.60;;;;;;;13.59;49.84;100333.59;5015097;28;20049;-74
2023/10/22 10:32:47;;;;;;;0.63;0.45;;;;;;;13.58;49.06;100326.38;5013716;28;20188;-74
2023/10/22 10:35:29;;;;;;;;;;;;;;;13.33;49.78;100319.03;5012728;28;20049;-73
2023/10/22 10:38:23;;;;;;;1.25;0.55;;;;;;;13.57;49.23;100321.91;5009665;28;19929;-74
2023/10/22 10:40:54;;;;;;;0.90;0.50;;;;;;;13.61;49.43;100328.78;5010632;28;20079;-73
2023/10/22 10:43:56;;;;;;;0.98;0.63;;;;;;;13.63;49.07;100329.47;5013255;28;20168;-74
2023/10/22 10:46:27;;;;;;;0.68;0.45;;;;;;;13.63;49.23;100329.47;5009144;28;20256;-74
2023/10/22 10:48:56;;;;;;;2.33;0.80;;;;;;;13.61;49.16;100324.13;5010998;28;20148;-73
2023/10/22 10:51:25;;;;;;;2.30;0.50;;;;;;;13.65;48.92;100323.81;5011199;28;20056;-73
2023/10/22 10:54:17;;;;;;;1.25;0.52;;;;;;;13.67;48.88;100327.25;5010207;28;20951;-74
2023/10/22 10:56:52;;;;;;;1.27;0.68;;;;;;;13.67;49.16;100324.50;5014427;28;20053;-74
2023/10/22 10:59:31;;;;;;;0.60;0.50;;;;;;;13.70;48.89;100327.75;5013835;28;20126;-73
2023/10/22 11:02:08;;;;;;;0.63;0.50;;;;;;;13.72;48.56;100322.09;5014231;28;20429;-73
2023/10/22 11:04:37;;;;;;;1.05;0.50;;;;;;;13.70;49.02;100336.00;5015340;28;20081;-74
2023/10/22 11:07:06;;;;;;;1.23;0.60;;;;;;;13.72;48.86;100330.34;5030509;28;20049;-74
2023/10/22 11:09:38;;;;;;;0.93;0.47;;;;;;;13.71;48.69;100343.25;5014227;28;20056;-74
2023/10/22 11:12:09;;;;;;;2.10;0.50;;;;;;;13.76;48.30;100338.13;5014754;28;20100;-74
2023/10/22 11:14:38;;;;;;;1.52;0.60;;;;;;;13.77;48.52;100345.34;5013946;28;20172;-74
2023/10/22 11:17:07;;;;;;;1.40;0.32;;;;;;;13.78;48.78;100344.28;5029372;28;20046;-77
2023/10/22 11:19:35;;;;;;;0.60;0.30;;;;;;;13.79;48.70;100347.91;5017380;28;20060;-77
2023/10/22 11:22:04;;;;;;;0.50;0.40;;;;;;;13.80;48.74;100344.13;5019908;28;20053;-79
2023/10/22 11:24:34;;;;;;;0.70;0.40;;;;;;;13.82;48.42;100353.06;5012916;28;20056;-80
2023/10/22 11:27:05;;;;;;;1.25;0.60;;;;;;;13.84;48.72;100354.66;5017206;28;20085;-75
2023/10/22 11:29:41;;;;;;;2.20;0.65;;;;;;;13.88;48.58;100360.66;5012811;28;20624;-77
2023/10/22 11:32:13;;;;;;;0.90;0.43;;;;;;;13.87;48.30;100353.44;5015733;28;20046;-78
2023/10/22 11:34:51;;;;;;;1.02;0.40;;;;;;;13.90;48.29;100370.47;5015880;28;20423;-77
2023/10/22 11:37:20;;;;;;;0.95;0.40;;;;;;;13.87;48.57;100379.03;5014884;28;20060;-77
2023/10/22 11:39:49;;;;;;;1.42;0.57;;;;;;;13.88;48.23;100375.28;5013639;28;21095;-77